createdAt,value
2022-08-20T00:01:29.611Z,19.58
2022-08-20T00:03:59.809Z,19.53
2022-08-20T00:06:31.634Z,19.49
2022-08-20T00:09:00.610Z,19.45
2022-08-20T00:11:33.865Z,19.40
2022-08-20T00:14:06.114Z,19.34
2022-08-20T00:16:38.965Z,19.31
2022-08-20T00:19:10.162Z,19.28
2022-08-20T00:21:38.900Z,19.27
2022-08-20T00:24:08.740Z,19.26
2022-08-20T00:26:37.938Z,19.24
2022-08-20T00:29:22.521Z,19.22
2022-08-20T00:31:51.677Z,19.19
2022-08-20T00:34:20.378Z,19.15
2022-08-20T00:36:49.280Z,19.11
2022-08-20T00:39:18.057Z,18.94
2022-08-20T00:41:46.839Z,19.05
2022-08-20T00:44:19.627Z,19.03
2022-08-20T00:46:49.141Z,19.01
2022-08-20T00:49:33.351Z,18.98
2022-08-20T00:52:19.986Z,18.94
2022-08-20T00:55:01.218Z,18.89
2022-08-20T00:58:03.964Z,18.85
2022-08-20T01:00:39.633Z,18.81
2022-08-20T01:03:11.657Z,18.77
2022-08-20T01:05:45.087Z,18.76
2022-08-20T01:08:17.562Z,18.75
2022-08-20T01:10:49.945Z,18.75
2022-08-20T01:13:24.586Z,18.75
2022-08-20T01:15:56.924Z,18.69
2022-08-20T01:18:29.218Z,18.68
2022-08-20T01:21:05.359Z,18.72
2022-08-20T01:24:08.987Z,18.71
2022-08-20T01:26:47.736Z,18.72
2022-08-20T01:29:23.645Z,18.65
2022-08-20T01:31:53.703Z,18.75
2022-08-20T01:34:23.502Z,18.75
2022-08-20T01:36:55.141Z,18.75
2022-08-20T01:39:30.096Z,18.72
2022-08-20T01:42:30.653Z,18.67
2022-08-20T01:44:59.374Z,18.64
2022-08-20T01:47:38.299Z,18.61
2022-08-20T01:50:24.297Z,18.54
2022-08-20T01:52:59.532Z,18.47
2022-08-20T01:55:28.507Z,18.42
2022-08-20T01:57:58.826Z,18.38
2022-08-20T02:00:28.492Z,18.37
2022-08-20T02:02:57.407Z,18.36
2022-08-20T02:05:30.566Z,18.33
2022-08-20T02:08:00.428Z,18.34
2022-08-20T02:10:31.948Z,18.32
2022-08-20T02:13:05.562Z,18.30
2022-08-20T02:15:37.318Z,18.25
2022-08-20T02:18:16.533Z,18.19
2022-08-20T02:20:46.272Z,18.15
2022-08-20T02:23:16.527Z,18.13
2022-08-20T02:25:47.904Z,18.12
2022-08-20T02:28:21.073Z,18.12
2022-08-20T02:30:55.440Z,18.13
2022-08-20T02:33:25.292Z,17.94
2022-08-20T02:35:56.716Z,18.13
2022-08-20T02:38:25.743Z,18.14
2022-08-20T02:40:54.665Z,18.15
2022-08-20T02:43:23.503Z,18.14
2022-08-20T02:45:52.332Z,18.13
2022-08-20T02:48:23.434Z,18.10
2022-08-20T02:51:01.991Z,18.05
2022-08-20T02:53:35.391Z,18.01
2022-08-20T02:56:06.398Z,17.95
2022-08-20T02:58:41.691Z,17.86
2022-08-20T03:01:15.547Z,17.78
2022-08-20T03:03:46.789Z,17.73
2022-08-20T03:06:16.476Z,17.69
2022-08-20T03:08:45.847Z,17.46
2022-08-20T03:11:14.658Z,17.61
2022-08-20T03:13:44.438Z,17.55
2022-08-20T03:16:15.412Z,17.50
2022-08-20T03:18:47.701Z,17.49
2022-08-20T03:21:20.952Z,17.49
2022-08-20T03:23:51.739Z,17.51
2022-08-20T03:26:20.689Z,17.53
2022-08-20T03:28:49.738Z,17.54
2022-08-20T03:31:18.528Z,17.56
2022-08-20T03:33:53.016Z,17.58
2022-08-20T03:36:29.093Z,17.63
2022-08-20T03:39:02.818Z,17.66
2022-08-20T03:41:33.219Z,17.39
2022-08-20T03:44:02.060Z,17.73
2022-08-20T03:46:30.876Z,17.76
2022-08-20T03:49:00.618Z,17.80
2022-08-20T03:51:56.178Z,17.84
2022-08-20T03:54:22.674Z,17.92
2022-08-20T03:56:51.591Z,18.00
2022-08-20T03:59:34.803Z,18.09
2022-08-20T04:02:17.362Z,18.05
2022-08-20T04:04:48.020Z,18.26
2022-08-20T04:07:37.355Z,18.35
2022-08-20T04:10:13.486Z,18.44
2022-08-20T04:12:51.366Z,18.53
2022-08-20T04:15:23.609Z,18.63
2022-08-20T04:17:53.816Z,18.73
2022-08-20T04:20:26.286Z,18.82
2022-08-20T04:22:58.536Z,18.90
2022-08-20T04:25:36.084Z,18.85
2022-08-20T04:28:08.550Z,19.05
2022-08-20T04:30:40.603Z,19.13
2022-08-20T04:33:17.056Z,19.20
2022-08-20T04:35:51.488Z,19.32
2022-08-20T04:38:23.133Z,19.41
2022-08-20T04:40:58.450Z,19.51
2022-08-20T04:43:39.590Z,19.62
2022-08-20T04:46:16.703Z,19.75
2022-08-20T04:48:50.582Z,19.86
2022-08-20T04:51:27.003Z,19.98
2022-08-20T04:54:07.667Z,20.08
2022-08-20T04:57:00.549Z,20.18
2022-08-20T04:59:53.883Z,20.31
2022-08-20T05:02:33.496Z,20.32
2022-08-20T05:05:18.679Z,20.55
2022-08-20T05:08:02.042Z,20.68
2022-08-20T05:10:50.085Z,20.78
2022-08-20T05:13:29.279Z,20.90
2022-08-20T05:16:06.851Z,20.79
2022-08-20T05:18:43.183Z,21.09
2022-08-20T05:21:16.095Z,21.20
2022-08-20T05:23:52.226Z,21.21
2022-08-20T05:26:25.456Z,21.42
2022-08-20T05:29:14.572Z,21.52
2022-08-20T05:31:54.397Z,21.64
2022-08-20T05:34:26.467Z,21.74
2022-08-20T05:37:14.270Z,21.83
2022-08-20T05:39:56.759Z,21.93
2022-08-20T05:45:27.912Z,22.15
2022-08-20T05:48:19.420Z,22.24
2022-08-20T05:50:56.740Z,22.27
2022-08-20T05:53:33.156Z,22.31
2022-08-20T05:56:21.685Z,22.56
2022-08-20T05:59:04.988Z,22.67
2022-08-20T06:01:46.232Z,22.62
2022-08-20T06:04:37.777Z,22.83
2022-08-20T06:07:13.194Z,22.92
2022-08-20T06:09:53.384Z,23.02
2022-08-20T06:12:26.182Z,22.92
2022-08-20T06:15:18.615Z,23.20
2022-08-20T06:17:58.512Z,23.23
2022-08-20T06:20:30.256Z,23.30
2022-08-20T06:23:00.919Z,23.48
2022-08-20T06:25:37.399Z,23.63
2022-08-20T06:28:07.006Z,23.77
2022-08-20T06:30:56.452Z,23.88
2022-08-20T06:34:03.768Z,24.07
2022-08-20T06:36:42.963Z,23.98
2022-08-20T06:39:14.889Z,24.17
2022-08-20T06:42:07.337Z,24.27
2022-08-20T06:44:50.921Z,24.49
2022-08-20T06:47:50.404Z,24.58
2022-08-20T06:50:22.492Z,24.65
2022-08-20T06:52:57.048Z,24.76
2022-08-20T06:55:27.542Z,24.72
2022-08-20T06:58:30.452Z,24.98
2022-08-20T07:01:30.778Z,24.94
2022-08-20T07:04:16.130Z,25.24
2022-08-20T07:06:52.397Z,25.31
2022-08-20T07:10:38.474Z,25.31
2022-08-20T07:13:55.983Z,25.26
2022-08-20T07:16:38.002Z,25.54
2022-08-20T07:19:24.145Z,25.62
2022-08-20T07:21:58.475Z,25.74
2022-08-20T07:24:32.546Z,25.88
2022-08-20T07:27:35.835Z,25.98
2022-08-20T07:30:56.841Z,26.00
2022-08-20T07:33:35.255Z,26.06
2022-08-20T07:36:08.727Z,26.34
2022-08-20T07:38:58.096Z,26.41
2022-08-20T07:42:04.014Z,26.64
2022-08-20T07:44:47.396Z,26.59
2022-08-20T07:47:24.599Z,26.69
2022-08-20T07:50:07.399Z,26.75
2022-08-20T07:52:49.245Z,26.76
2022-08-20T07:55:25.595Z,26.60
2022-08-20T07:57:54.527Z,26.69
2022-08-20T08:00:27.624Z,26.77
2022-08-20T08:03:11.117Z,26.99
2022-08-20T08:05:44.024Z,27.06
2022-08-20T08:08:20.769Z,27.14
2022-08-20T08:10:58.351Z,27.23
2022-08-20T08:13:38.945Z,27.30
2022-08-20T08:16:09.733Z,27.39
2022-08-20T08:19:02.181Z,27.45
2022-08-20T08:21:32.733Z,27.42
2022-08-20T08:24:02.827Z,27.52
2022-08-20T08:26:32.857Z,27.49
2022-08-20T08:29:04.233Z,27.53
2022-08-20T08:31:37.552Z,27.59
2022-08-20T08:34:10.308Z,27.64
2022-08-20T08:36:39.774Z,27.64
2022-08-20T08:39:08.560Z,27.66
2022-08-20T08:41:48.232Z,27.67
2022-08-20T08:44:25.430Z,27.69
2022-08-20T08:47:25.488Z,27.78
2022-08-20T08:49:58.823Z,27.94
2022-08-20T08:55:32.642Z,27.97
2022-08-20T08:58:04.327Z,28.08
2022-08-20T09:00:56.612Z,28.14
2022-08-20T09:03:38.291Z,28.16
2022-08-20T09:06:07.960Z,28.29
2022-08-20T09:08:57.248Z,28.45
2022-08-20T09:11:26.247Z,28.60
2022-08-20T09:13:58.857Z,28.64
2022-08-20T09:16:35.413Z,28.74
2022-08-20T09:19:19.586Z,28.82
2022-08-20T09:21:53.772Z,28.91
2022-08-20T09:24:24.466Z,28.93
2022-08-20T09:26:56.559Z,29.10
2022-08-20T09:29:29.116Z,29.15
2022-08-20T09:32:11.493Z,29.26
2022-08-20T09:34:59.614Z,29.33
2022-08-20T09:37:37.333Z,29.39
2022-08-20T09:40:09.230Z,29.70
2022-08-20T09:42:41.531Z,29.77
2022-08-20T09:45:12.860Z,29.86
2022-08-20T09:47:54.747Z,29.93
2022-08-20T09:50:35.671Z,30.02
2022-08-20T09:53:06.582Z,30.17
2022-08-20T09:55:52.774Z,30.24
2022-08-20T09:58:58.961Z,30.17
2022-08-20T10:01:35.078Z,29.99
2022-08-20T10:04:15.742Z,30.03
2022-08-20T10:07:12.357Z,30.07
2022-08-20T10:09:59.575Z,30.26
2022-08-20T10:12:54.635Z,30.29
2022-08-20T10:16:21.503Z,30.09
2022-08-20T10:23:22.125Z,30.11
2022-08-20T10:26:26.042Z,30.31
2022-08-20T10:31:54.043Z,30.56
2022-08-20T10:34:26.691Z,30.53
2022-08-20T10:36:57.593Z,30.52
2022-08-20T10:42:50.848Z,30.68
2022-08-20T10:45:32.259Z,30.75
2022-08-20T10:48:12.081Z,30.83
2022-08-20T10:50:48.155Z,30.85
2022-08-20T10:53:21.506Z,31.12
2022-08-20T10:55:58.304Z,31.24
2022-08-20T10:58:35.640Z,31.12
2022-08-20T11:01:31.324Z,30.82
2022-08-20T11:04:12.300Z,30.94
2022-08-20T11:06:44.331Z,31.16
2022-08-20T11:09:31.424Z,31.32
2022-08-20T11:12:03.142Z,31.68
2022-08-20T11:14:52.696Z,31.89
2022-08-20T11:17:47.175Z,31.94
2022-08-20T11:20:25.437Z,32.40
2022-08-20T11:23:17.101Z,32.74
2022-08-20T11:26:00.438Z,33.02
2022-08-20T11:28:42.659Z,33.23
2022-08-20T11:31:13.911Z,33.52
2022-08-20T11:33:46.360Z,33.76
2022-08-20T11:36:47.846Z,33.99
2022-08-20T11:39:24.353Z,34.10
2022-08-20T11:42:03.394Z,34.39
2022-08-20T11:44:57.536Z,34.58
2022-08-20T11:47:40.642Z,34.80
2022-08-20T11:50:38.060Z,35.01
2022-08-20T11:53:41.704Z,35.11
2022-08-20T11:56:24.382Z,34.79
2022-08-20T11:59:09.453Z,35.11
2022-08-20T12:02:12.088Z,35.21
2022-08-20T12:04:44.580Z,35.35
2022-08-20T12:07:19.362Z,35.20
2022-08-20T12:09:52.858Z,34.88
2022-08-20T12:12:27.648Z,34.83
2022-08-20T12:15:05.624Z,34.66
2022-08-20T12:17:51.106Z,34.56
2022-08-20T12:20:38.882Z,34.77
2022-08-20T12:23:15.458Z,35.12
2022-08-20T12:25:51.884Z,35.34
2022-08-20T12:28:52.293Z,35.65
2022-08-20T12:31:39.608Z,36.15
2022-08-20T12:34:20.663Z,36.45
2022-08-20T12:37:00.608Z,36.64
2022-08-20T12:39:51.617Z,36.74
2022-08-20T12:42:23.746Z,36.66
2022-08-20T12:44:58.202Z,36.60
2022-08-20T12:47:41.205Z,36.74
2022-08-20T12:50:31.290Z,36.77
2022-08-20T12:53:10.618Z,36.70
2022-08-20T12:55:43.272Z,36.54
2022-08-20T12:58:20.698Z,36.45
2022-08-20T13:00:54.801Z,36.35
2022-08-20T13:03:24.803Z,35.87
2022-08-20T13:05:56.829Z,35.31
2022-08-20T13:08:34.455Z,34.60
2022-08-20T13:11:10.151Z,33.95
2022-08-20T13:13:43.848Z,33.44
2022-08-20T13:16:26.167Z,32.97
2022-08-20T13:18:58.007Z,32.54
2022-08-20T13:21:45.170Z,32.26
2022-08-20T13:24:37.849Z,32.17
2022-08-20T13:27:44.671Z,32.68
2022-08-20T13:30:51.139Z,33.47
2022-08-20T13:33:31.948Z,34.05
2022-08-20T13:36:07.371Z,34.45
2022-08-20T13:38:57.032Z,34.78
2022-08-20T13:41:26.066Z,35.02
2022-08-20T13:44:09.005Z,35.16
2022-08-20T13:46:45.042Z,35.11
2022-08-20T13:49:20.604Z,34.84
2022-08-20T13:51:55.526Z,34.17
2022-08-20T13:55:00.208Z,33.51
2022-08-20T13:58:03.649Z,32.87
2022-08-20T14:04:52.530Z,32.08
2022-08-20T14:08:25.085Z,31.67
2022-08-20T14:11:04.961Z,31.61
2022-08-20T14:13:50.553Z,31.96
2022-08-20T14:16:33.299Z,32.25
2022-08-20T14:19:19.841Z,32.09
2022-08-20T14:22:04.142Z,32.13
2022-08-20T14:24:53.605Z,32.27
2022-08-20T14:27:50.922Z,32.05
2022-08-20T14:34:03.907Z,32.42
2022-08-20T14:37:00.987Z,32.85
2022-08-20T14:39:40.259Z,33.26
2022-08-20T14:42:14.220Z,33.42
2022-08-20T14:44:54.615Z,33.31
2022-08-20T14:47:44.072Z,33.08
2022-08-20T14:50:45.106Z,32.94
2022-08-20T14:56:30.097Z,32.58
2022-08-20T14:59:20.483Z,32.41
2022-08-20T15:02:31.185Z,32.18
2022-08-20T15:05:39.677Z,31.96
2022-08-20T15:08:22.890Z,31.50
2022-08-20T15:11:42.909Z,31.44
2022-08-20T15:15:09.651Z,31.38
2022-08-20T15:18:29.793Z,31.35
2022-08-20T15:22:12.501Z,31.33
2022-08-20T15:25:20.776Z,31.18
2022-08-20T15:28:16.618Z,30.85
2022-08-20T15:31:08.232Z,30.71
2022-08-20T15:34:27.471Z,30.62
2022-08-20T15:37:50.496Z,30.53
2022-08-20T15:48:51.339Z,30.45
2022-08-20T15:52:25.459Z,30.20
2022-08-20T15:55:07.173Z,30.00
2022-08-20T15:58:02.774Z,29.74
2022-08-20T16:12:54.908Z,28.79
2022-08-20T16:16:32.439Z,28.69
2022-08-20T16:19:27.951Z,28.55
2022-08-20T16:22:37.163Z,28.34
2022-08-20T16:25:55.627Z,28.01
2022-08-20T16:29:25.424Z,28.01
2022-08-20T16:32:31.411Z,27.97
2022-08-20T16:40:09.290Z,27.59
2022-08-20T16:42:46.247Z,27.60
2022-08-20T16:46:40.575Z,27.49
2022-08-20T16:53:35.949Z,27.17
2022-08-20T16:56:34.754Z,26.98
2022-08-20T16:59:45.574Z,26.81
2022-08-20T17:02:36.237Z,26.68
2022-08-20T17:05:17.360Z,26.63
2022-08-20T17:12:51.419Z,26.44
2022-08-20T17:16:56.211Z,26.27
2022-08-20T17:35:43.746Z,25.57
2022-08-20T17:43:43.517Z,25.40
2022-08-20T17:47:13.230Z,25.18
2022-08-20T17:51:07.899Z,25.05
2022-08-20T17:54:37.442Z,25.05
2022-08-20T17:58:14.987Z,24.92
2022-08-20T18:01:31.936Z,24.75
2022-08-20T18:08:30.613Z,24.62
2022-08-20T18:12:44.628Z,24.46
2022-08-20T18:16:23.743Z,24.42
2022-08-20T18:20:46.940Z,24.35
2022-08-20T18:24:29.777Z,24.20
2022-08-20T18:27:38.557Z,24.07
2022-08-20T18:31:22.030Z,24.07
2022-08-20T18:34:28.959Z,24.03
2022-08-20T18:37:39.417Z,23.96
2022-08-20T18:40:45.287Z,23.89
2022-08-20T18:47:54.406Z,23.73
2022-08-20T18:50:52.867Z,23.58
2022-08-20T19:01:34.470Z,23.35
2022-08-20T19:05:02.375Z,23.42
2022-08-20T19:12:24.344Z,23.29
2022-08-20T19:16:18.073Z,23.11
2022-08-20T19:22:52.728Z,23.07
2022-08-20T19:33:43.824Z,22.85
2022-08-20T19:36:31.771Z,22.86
2022-08-20T19:39:51.584Z,22.81
2022-08-20T19:46:51.442Z,22.70
2022-08-20T19:53:56.819Z,22.57
2022-08-20T19:56:57.024Z,22.40
2022-08-20T20:00:46.605Z,22.32
2022-08-20T20:04:55.474Z,22.47
2022-08-20T20:11:18.391Z,22.33
2022-08-20T20:14:39.054Z,22.32
2022-08-20T20:17:56.583Z,22.16
2022-08-20T20:21:22.218Z,22.27
2022-08-20T20:24:02.399Z,22.28
2022-08-20T20:27:44.470Z,22.35
2022-08-20T20:31:09.224Z,22.42
2022-08-20T20:37:59.690Z,22.38
2022-08-20T20:41:49.212Z,22.42
2022-08-20T20:45:04.156Z,22.27
2022-08-20T20:47:56.877Z,22.22
2022-08-20T20:59:07.304Z,22.29
2022-08-20T21:02:13.027Z,22.24
2022-08-20T21:05:39.529Z,22.30
2022-08-20T21:08:37.521Z,22.30
2022-08-20T21:11:57.627Z,22.26
2022-08-20T21:17:29.376Z,22.25
2022-08-20T21:19:49.560Z,22.21
2022-08-20T21:23:10.826Z,22.05
2022-08-20T21:26:31.494Z,22.02
2022-08-20T21:33:13.232Z,22.09
2022-08-20T21:36:14.594Z,22.09
2022-08-20T21:38:58.831Z,21.91
2022-08-20T21:42:32.530Z,22.05
2022-08-20T21:45:35.423Z,21.98
2022-08-20T21:48:29.023Z,21.91
2022-08-20T21:51:16.516Z,21.84
2022-08-20T21:54:02.067Z,21.65
2022-08-20T21:56:45.413Z,21.74
2022-08-20T21:59:29.332Z,21.63
2022-08-20T22:02:02.879Z,21.40
2022-08-20T22:04:50.952Z,21.60
2022-08-20T22:07:41.338Z,21.54
2022-08-20T22:10:19.820Z,21.38
2022-08-20T22:13:01.363Z,21.44
2022-08-20T22:15:59.209Z,21.49
2022-08-20T22:18:48.317Z,21.53
2022-08-20T22:21:39.825Z,21.53
2022-08-20T22:24:26.365Z,21.52
2022-08-20T22:30:12.349Z,21.50
2022-08-20T22:36:05.922Z,21.49
2022-08-20T22:39:14.590Z,21.33
2022-08-20T22:41:58.721Z,21.54
2022-08-20T22:44:39.946Z,21.52
2022-08-20T22:47:41.186Z,21.29
2022-08-20T22:50:42.091Z,21.39
2022-08-20T22:53:34.312Z,21.34
2022-08-20T22:56:21.695Z,21.40
2022-08-20T22:59:18.443Z,21.44
2022-08-20T23:02:26.118Z,21.38
2022-08-20T23:08:34.895Z,21.28
2022-08-20T23:14:48.218Z,21.34
2022-08-20T23:17:39.336Z,21.13
2022-08-20T23:20:44.665Z,21.23
2022-08-20T23:23:42.596Z,21.22
2022-08-20T23:29:39.124Z,21.14
2022-08-20T23:32:49.230Z,21.09
2022-08-20T23:35:35.775Z,20.90
2022-08-20T23:38:22.484Z,21.01
2022-08-20T23:41:19.362Z,20.97
2022-08-20T23:44:05.708Z,20.92
2022-08-20T23:47:07.630Z,20.76
2022-08-20T23:50:04.261Z,20.82
